createdAt,value
2019-03-06T00:00:05.929Z,71.39
2019-03-06T00:01:05.796Z,71.95
2019-03-06T00:02:05.667Z,71.58
2019-03-06T00:03:05.535Z,71.11
2019-03-06T00:04:05.398Z,70.73
2019-03-06T00:05:05.302Z,71.30
2019-03-06T00:06:05.132Z,71.48
2019-03-06T00:07:05.000Z,72.14
2019-03-06T00:08:04.866Z,71.67
2019-03-06T00:09:04.734Z,71.48
2019-03-06T00:10:04.598Z,71.67
2019-03-06T00:11:04.467Z,71.39
2019-03-06T00:12:04.331Z,71.86
2019-03-06T00:13:04.197Z,72.52
2019-03-06T00:14:04.067Z,72.99
2019-03-06T00:15:03.933Z,72.43
2019-03-06T00:16:03.800Z,72.14
2019-03-06T00:17:03.669Z,71.58
2019-03-06T00:18:03.533Z,71.58
2019-03-06T00:19:03.403Z,71.95
2019-03-06T00:20:03.269Z,71.48
2019-03-06T00:21:03.134Z,71.58
2019-03-06T00:22:03.001Z,71.95
2019-03-06T00:23:02.867Z,71.77
2019-03-06T00:24:02.734Z,72.62
2019-03-06T00:25:02.600Z,72.05
2019-03-06T00:26:02.492Z,72.14
2019-03-06T00:27:03.960Z,71.86
2019-03-06T00:28:02.204Z,71.58
2019-03-06T00:29:02.070Z,70.82
2019-03-06T00:30:01.935Z,70.92
2019-03-06T00:31:01.801Z,70.44
2019-03-06T00:32:01.667Z,71.11
2019-03-06T00:33:01.532Z,71.11
2019-03-06T00:34:01.399Z,71.58
2019-03-06T00:35:01.271Z,71.95
2019-03-06T00:36:01.136Z,72.05
2019-03-06T00:37:00.999Z,71.30
2019-03-06T00:38:00.867Z,72.24
2019-03-06T00:39:00.732Z,72.24
2019-03-06T00:40:00.597Z,71.30
2019-03-06T00:41:00.468Z,72.24
2019-03-06T00:42:00.350Z,72.52
2019-03-06T00:43:00.200Z,72.33
2019-03-06T00:44:00.066Z,72.62
2019-03-06T00:44:59.976Z,71.30
2019-03-06T00:45:59.798Z,71.30
2019-03-06T00:46:59.679Z,70.92
2019-03-06T00:47:59.531Z,71.39
2019-03-06T00:48:59.398Z,71.48
2019-03-06T00:49:59.271Z,72.05
2019-03-06T00:50:59.141Z,72.52
2019-03-06T00:51:59.000Z,73.18
2019-03-06T00:52:58.866Z,73.28
2019-03-06T00:53:58.737Z,72.99
2019-03-06T00:54:58.600Z,70.82
2019-03-06T00:55:58.464Z,69.87
2019-03-06T00:56:58.337Z,69.87
2019-03-06T00:57:58.199Z,69.87
2019-03-06T00:58:58.070Z,70.73
2019-03-06T00:59:57.932Z,71.58
2019-03-06T01:00:57.804Z,71.58
2019-03-06T01:01:57.665Z,71.58
2019-03-06T01:02:57.532Z,71.48
2019-03-06T01:03:57.398Z,71.30
2019-03-06T01:04:57.265Z,72.14
2019-03-06T01:05:57.133Z,72.14
2019-03-06T01:06:57.002Z,71.58
2019-03-06T01:07:56.866Z,71.48
2019-03-06T01:08:56.731Z,71.48
2019-03-06T01:09:56.600Z,71.58
2019-03-06T01:10:56.467Z,71.86
2019-03-06T01:11:56.333Z,71.86
2019-03-06T01:12:56.199Z,71.86
2019-03-06T01:13:56.067Z,72.24
2019-03-06T01:14:55.934Z,71.58
2019-03-06T01:15:57.468Z,71.58
2019-03-06T01:16:55.665Z,70.92
2019-03-06T01:17:55.531Z,70.63
2019-03-06T01:18:55.399Z,70.63
2019-03-06T01:19:55.297Z,70.92
2019-03-06T01:20:55.133Z,71.67
2019-03-06T01:21:54.999Z,72.05
2019-03-06T01:22:54.864Z,73.18
2019-03-06T01:23:54.729Z,73.18
2019-03-06T01:24:54.599Z,73.56
2019-03-06T01:25:54.467Z,73.56
2019-03-06T01:26:54.338Z,73.66
2019-03-06T01:27:54.197Z,74.13
2019-03-06T01:28:54.066Z,73.56
2019-03-06T01:29:53.929Z,72.24
2019-03-06T01:30:53.798Z,71.95
2019-03-06T01:31:53.664Z,71.77
2019-03-06T01:32:53.529Z,71.20
2019-03-06T01:33:53.396Z,71.48
2019-03-06T01:34:53.265Z,71.48
2019-03-06T01:35:53.131Z,72.05
2019-03-06T01:36:53.000Z,71.48
2019-03-06T01:37:52.862Z,71.58
2019-03-06T01:38:52.731Z,71.39
2019-03-06T01:39:52.595Z,71.67
2019-03-06T01:40:52.466Z,71.30
2019-03-06T01:41:52.330Z,71.67
2019-03-06T01:42:52.199Z,72.14
2019-03-06T01:43:52.064Z,71.67
2019-03-06T01:44:51.929Z,72.05
2019-03-06T01:45:51.802Z,72.14
2019-03-06T01:46:51.663Z,71.48
2019-03-06T01:47:51.531Z,71.01
2019-03-06T01:48:51.398Z,71.20
2019-03-06T01:49:51.267Z,71.48
2019-03-06T01:50:52.065Z,71.30
2019-03-06T01:51:50.998Z,71.67
2019-03-06T01:52:50.865Z,71.67
2019-03-06T01:53:50.731Z,71.77
2019-03-06T01:54:50.603Z,71.86
2019-03-06T01:55:50.470Z,71.77
2019-03-06T01:56:50.332Z,71.39
2019-03-06T01:57:50.199Z,71.48
2019-03-06T01:58:50.067Z,70.54
2019-03-06T01:59:49.930Z,70.63
2019-03-06T02:00:49.805Z,71.48
2019-03-06T02:01:49.666Z,72.14
2019-03-06T02:02:49.535Z,72.62
2019-03-06T02:03:49.398Z,72.99
2019-03-06T02:04:49.267Z,72.71
2019-03-06T02:05:49.562Z,72.52
2019-03-06T02:06:49.003Z,72.71
2019-03-06T02:07:48.867Z,72.99
2019-03-06T02:08:48.734Z,72.80
2019-03-06T02:09:48.599Z,72.43
2019-03-06T02:10:48.469Z,72.71
2019-03-06T02:11:48.336Z,71.71
2019-03-06T02:12:48.201Z,71.42
2019-03-06T02:13:48.072Z,70.20
2019-03-06T02:14:47.934Z,70.20
2019-03-06T02:15:47.801Z,71.61
2019-03-06T02:16:47.672Z,72.18
2019-03-06T02:17:47.536Z,73.69
2019-03-06T02:18:47.403Z,74.51
2019-03-06T02:19:48.083Z,74.13
2019-03-06T02:20:47.140Z,72.71
2019-03-06T02:21:47.006Z,73.18
2019-03-06T02:22:46.871Z,73.79
2019-03-06T02:23:46.737Z,73.47
2019-03-06T02:24:46.604Z,72.99
2019-03-06T02:25:46.471Z,72.24
2019-03-06T02:26:46.339Z,72.62
2019-03-06T02:27:46.205Z,72.71
2019-03-06T02:28:46.074Z,73.09
2019-03-06T02:29:45.941Z,74.41
2019-03-06T02:30:45.808Z,73.37
2019-03-06T02:31:45.674Z,72.33
2019-03-06T02:32:45.542Z,71.58
2019-03-06T02:33:45.411Z,70.92
2019-03-06T02:34:45.279Z,71.48
2019-03-06T02:35:45.144Z,71.30
2019-03-06T02:36:45.012Z,71.48
2019-03-06T02:37:44.876Z,71.01
2019-03-06T02:38:44.746Z,69.97
2019-03-06T02:39:44.612Z,69.78
2019-03-06T02:40:44.492Z,69.49
2019-03-06T02:41:44.349Z,68.27
2019-03-06T02:42:44.211Z,69.12
2019-03-06T02:43:44.078Z,69.21
2019-03-06T02:44:43.946Z,69.21
2019-03-06T02:45:43.810Z,69.87
2019-03-06T02:46:43.679Z,70.06
2019-03-06T02:47:43.551Z,70.73
2019-03-06T02:48:46.980Z,69.68
2019-03-06T02:49:43.286Z,70.92
2019-03-06T02:50:43.146Z,71.20
2019-03-06T02:51:43.009Z,71.58
2019-03-06T02:52:42.881Z,72.62
2019-03-06T02:53:42.746Z,71.86
2019-03-06T02:54:42.610Z,72.33
2019-03-06T02:55:42.475Z,72.05
2019-03-06T02:56:42.344Z,72.90
2019-03-06T02:57:42.214Z,72.52
2019-03-06T02:58:42.078Z,72.62
2019-03-06T02:59:41.945Z,72.62
2019-03-06T03:00:41.811Z,71.95
2019-03-06T03:01:41.681Z,71.30
2019-03-06T03:02:41.544Z,70.63
2019-03-06T03:03:41.410Z,71.20
2019-03-06T03:04:41.280Z,71.30
2019-03-06T03:05:41.146Z,72.14
2019-03-06T03:06:41.013Z,72.24
2019-03-06T03:07:40.877Z,73.09
2019-03-06T03:08:40.745Z,72.14
2019-03-06T03:09:40.613Z,71.67
2019-03-06T03:10:40.478Z,72.05
2019-03-06T03:11:40.345Z,72.43
2019-03-06T03:12:40.211Z,72.99
2019-03-06T03:13:40.080Z,72.80
2019-03-06T03:14:39.949Z,72.62
2019-03-06T03:15:39.813Z,71.86
2019-03-06T03:16:39.679Z,72.14
2019-03-06T03:17:40.097Z,71.77
2019-03-06T03:18:39.413Z,71.77
2019-03-06T03:19:39.279Z,71.67
2019-03-06T03:20:39.148Z,71.48
2019-03-06T03:21:39.013Z,71.67
2019-03-06T03:22:38.880Z,71.77
2019-03-06T03:23:38.748Z,71.30
2019-03-06T03:24:38.610Z,71.67
2019-03-06T03:25:38.484Z,71.39
2019-03-06T03:26:38.351Z,71.48
2019-03-06T03:27:38.213Z,71.67
2019-03-06T03:28:38.081Z,71.30
2019-03-06T03:29:37.943Z,70.63
2019-03-06T03:30:37.814Z,70.63
2019-03-06T03:31:37.678Z,70.73
2019-03-06T03:32:37.545Z,70.92
2019-03-06T03:33:37.417Z,71.11
2019-03-06T03:34:37.295Z,70.73
2019-03-06T03:35:37.145Z,70.92
2019-03-06T03:36:37.010Z,71.20
2019-03-06T03:37:36.878Z,70.92
2019-03-06T03:38:36.746Z,71.48
2019-03-06T03:39:36.619Z,70.82
2019-03-06T03:40:36.488Z,71.86
2019-03-06T03:41:36.346Z,72.99
2019-03-06T03:42:36.235Z,72.62
2019-03-06T03:43:36.075Z,72.43
2019-03-06T03:44:35.942Z,71.95
2019-03-06T03:45:35.814Z,71.77
2019-03-06T03:46:36.100Z,71.39
2019-03-06T03:47:35.543Z,71.30
2019-03-06T03:48:35.411Z,71.30
2019-03-06T03:49:35.294Z,71.48
2019-03-06T03:50:35.144Z,71.01
2019-03-06T03:51:35.012Z,71.39
2019-03-06T03:52:34.879Z,71.01
2019-03-06T03:53:34.746Z,69.87
2019-03-06T03:54:34.616Z,69.02
2019-03-06T03:55:34.487Z,67.60
2019-03-06T03:56:34.357Z,68.08
2019-03-06T03:57:34.213Z,69.12
2019-03-06T03:58:34.079Z,68.27
2019-03-06T03:59:33.946Z,68.65
2019-03-06T04:00:33.815Z,69.97
2019-03-06T04:01:33.681Z,71.39
2019-03-06T04:02:33.546Z,71.48
2019-03-06T04:03:33.416Z,71.39
2019-03-06T04:04:33.281Z,71.86
2019-03-06T04:05:33.153Z,72.05
2019-03-06T04:06:33.014Z,72.62
2019-03-06T04:07:32.882Z,71.95
2019-03-06T04:08:32.751Z,71.58
2019-03-06T04:09:32.618Z,72.14
2019-03-06T04:10:32.486Z,70.73
2019-03-06T04:11:32.350Z,69.40
2019-03-06T04:12:34.245Z,69.97
2019-03-06T04:13:32.082Z,70.16
2019-03-06T04:14:31.950Z,71.39
2019-03-06T04:15:32.107Z,71.39
2019-03-06T04:16:31.687Z,71.58
2019-03-06T04:17:31.548Z,71.48
2019-03-06T04:18:31.418Z,71.11
2019-03-06T04:19:31.281Z,71.58
2019-03-06T04:20:31.157Z,71.01
2019-03-06T04:21:31.019Z,72.90
2019-03-06T04:22:30.884Z,73.18
2019-03-06T04:23:30.749Z,73.18
2019-03-06T04:24:30.617Z,74.13
2019-03-06T04:25:30.483Z,72.90
2019-03-06T04:26:30.353Z,71.20
2019-03-06T04:27:30.216Z,70.82
2019-03-06T04:28:30.088Z,70.25
2019-03-06T04:29:29.956Z,70.82
2019-03-06T04:30:29.815Z,70.73
2019-03-06T04:31:29.682Z,71.01
2019-03-06T04:32:29.555Z,70.73
2019-03-06T04:33:29.416Z,71.48
2019-03-06T04:34:29.285Z,71.58
2019-03-06T04:35:29.152Z,71.58
2019-03-06T04:36:29.016Z,71.48
2019-03-06T04:37:28.883Z,71.77
2019-03-06T04:38:28.750Z,71.01
2019-03-06T04:39:28.617Z,71.39
2019-03-06T04:40:28.526Z,70.82
2019-03-06T04:41:28.391Z,71.48
2019-03-06T04:42:28.218Z,71.67
2019-03-06T04:43:28.084Z,72.52
2019-03-06T04:44:28.108Z,73.09
2019-03-06T04:45:27.816Z,73.09
2019-03-06T04:46:27.683Z,72.71
2019-03-06T04:47:27.548Z,72.99
2019-03-06T04:48:27.415Z,72.43
2019-03-06T04:49:27.282Z,71.95
2019-03-06T04:50:27.153Z,70.82
2019-03-06T04:51:27.017Z,70.63
2019-03-06T04:52:26.885Z,69.78
2019-03-06T04:53:26.754Z,69.21
2019-03-06T04:54:26.617Z,69.21
2019-03-06T04:55:26.485Z,69.31
2019-03-06T04:56:26.353Z,69.49
2019-03-06T04:57:26.218Z,69.68
2019-03-06T04:58:26.349Z,69.78
2019-03-06T04:59:25.955Z,70.54
2019-03-06T05:00:25.817Z,69.87
2019-03-06T05:01:25.683Z,69.12
2019-03-06T05:02:25.551Z,68.27
2019-03-06T05:03:25.420Z,68.65
2019-03-06T05:04:25.283Z,69.87
2019-03-06T05:05:25.150Z,70.54
2019-03-06T05:06:25.022Z,71.11
2019-03-06T05:07:24.883Z,70.73
2019-03-06T05:08:24.749Z,70.06
2019-03-06T05:09:24.620Z,70.35
2019-03-06T05:10:24.483Z,71.58
2019-03-06T05:11:24.356Z,72.05
2019-03-06T05:12:24.219Z,71.01
2019-03-06T05:13:25.316Z,69.68
2019-03-06T05:14:23.950Z,70.06
2019-03-06T05:15:23.818Z,68.74
2019-03-06T05:16:23.683Z,68.36
2019-03-06T05:17:23.550Z,67.70
2019-03-06T05:18:23.424Z,67.98
2019-03-06T05:19:23.287Z,68.84
2019-03-06T05:20:23.151Z,69.21
2019-03-06T05:21:23.018Z,69.97
2019-03-06T05:22:22.915Z,69.40
2019-03-06T05:23:22.767Z,69.68
2019-03-06T05:24:22.619Z,71.86
2019-03-06T05:25:22.496Z,71.86
2019-03-06T05:26:22.358Z,72.80
2019-03-06T05:27:22.220Z,72.24
2019-03-06T05:28:22.084Z,72.71
2019-03-06T05:29:21.951Z,71.86
2019-03-06T05:30:21.822Z,71.39
2019-03-06T05:31:21.685Z,71.30
2019-03-06T05:32:21.551Z,71.48
2019-03-06T05:33:21.423Z,71.77
2019-03-06T05:34:21.303Z,72.52
2019-03-06T05:35:21.154Z,72.62
2019-03-06T05:36:21.023Z,72.80
2019-03-06T05:37:20.888Z,72.90
2019-03-06T05:38:20.752Z,71.48
2019-03-06T05:39:20.617Z,70.16
2019-03-06T05:40:20.485Z,69.68
2019-03-06T05:41:20.353Z,69.02
2019-03-06T05:42:20.225Z,70.92
2019-03-06T05:43:20.089Z,71.67
2019-03-06T05:44:19.955Z,71.58
2019-03-06T05:45:19.819Z,71.30
2019-03-06T05:46:19.685Z,71.20
2019-03-06T05:47:19.553Z,70.54
2019-03-06T05:48:19.417Z,71.01
2019-03-06T05:49:19.291Z,72.62
2019-03-06T05:50:20.302Z,73.75
2019-03-06T05:51:19.020Z,74.13
2019-03-06T05:52:18.886Z,73.56
2019-03-06T05:53:18.759Z,72.43
2019-03-06T05:54:18.620Z,71.58
2019-03-06T05:55:20.020Z,72.05
2019-03-06T05:56:18.366Z,72.62
2019-03-06T05:57:18.220Z,73.13
2019-03-06T05:58:18.097Z,72.94
2019-03-06T05:59:17.953Z,74.36
2019-03-06T06:00:17.821Z,74.36
2019-03-06T06:01:17.690Z,72.94
2019-03-06T06:02:17.557Z,71.90
2019-03-06T06:03:17.434Z,71.33
2019-03-06T06:04:17.302Z,71.42
2019-03-06T06:05:17.158Z,71.14
2019-03-06T06:06:17.026Z,71.23
2019-03-06T06:07:16.894Z,70.95
2019-03-06T06:08:16.760Z,70.48
2019-03-06T06:09:16.628Z,70.48
2019-03-06T06:10:16.501Z,70.76
2019-03-06T06:11:16.361Z,70.76
2019-03-06T06:12:16.228Z,71.71
2019-03-06T06:13:16.103Z,71.71
2019-03-06T06:14:15.958Z,70.01
2019-03-06T06:15:15.833Z,71.04
2019-03-06T06:16:15.696Z,73.13
2019-03-06T06:17:15.560Z,71.80
2019-03-06T06:18:15.428Z,72.66
2019-03-06T06:19:15.331Z,72.18
2019-03-06T06:20:15.161Z,72.09
2019-03-06T06:21:15.029Z,72.75
2019-03-06T06:22:14.895Z,72.18
2019-03-06T06:23:14.763Z,71.90
2019-03-06T06:24:14.633Z,72.85
2019-03-06T06:25:14.500Z,72.94
2019-03-06T06:26:14.365Z,73.60
2019-03-06T06:27:14.231Z,74.55
2019-03-06T06:28:14.099Z,75.31
2019-03-06T06:29:13.968Z,74.45
2019-03-06T06:30:13.835Z,74.64
2019-03-06T06:31:13.705Z,74.45
2019-03-06T06:32:13.572Z,74.64
2019-03-06T06:33:13.439Z,74.55
2019-03-06T06:34:13.304Z,73.79
2019-03-06T06:35:13.172Z,71.99
2019-03-06T06:36:13.038Z,72.09
2019-03-06T06:37:12.909Z,72.75
2019-03-06T06:38:12.778Z,72.75
2019-03-06T06:39:12.640Z,72.47
2019-03-06T06:40:12.510Z,71.42
2019-03-06T06:41:12.376Z,71.04
2019-03-06T06:42:12.243Z,71.08
2019-03-06T06:43:12.112Z,71.74
2019-03-06T06:44:11.987Z,72.60
2019-03-06T06:45:11.846Z,72.03
2019-03-06T06:46:11.714Z,70.98
2019-03-06T06:47:11.582Z,68.62
2019-03-06T06:48:11.447Z,68.49
2019-03-06T06:49:11.315Z,68.40
2019-03-06T06:50:11.184Z,68.21
2019-03-06T06:51:11.055Z,69.82
2019-03-06T06:52:10.918Z,72.28
2019-03-06T06:53:10.789Z,72.56
2019-03-06T06:54:10.670Z,72.75
2019-03-06T06:55:10.522Z,72.66
2019-03-06T06:56:10.391Z,72.75
2019-03-06T06:57:10.256Z,73.41
2019-03-06T06:58:10.126Z,73.35
2019-03-06T06:59:09.993Z,74.11
2019-03-06T07:00:09.861Z,74.30
2019-03-06T07:01:09.729Z,72.22
2019-03-06T07:02:09.603Z,70.04
2019-03-06T07:03:09.464Z,70.61
2019-03-06T07:04:09.333Z,71.84
2019-03-06T07:05:09.202Z,72.50
2019-03-06T07:06:09.067Z,72.88
2019-03-06T07:07:08.935Z,74.02
2019-03-06T07:08:08.806Z,73.64
2019-03-06T07:09:08.671Z,72.88
2019-03-06T07:10:08.541Z,71.36
2019-03-06T07:11:08.406Z,71.84
2019-03-06T07:12:08.274Z,70.51
2019-03-06T07:13:08.145Z,71.55
2019-03-06T07:14:08.015Z,72.88
2019-03-06T07:15:07.877Z,71.74
2019-03-06T07:16:07.746Z,69.95
2019-03-06T07:17:07.614Z,67.39
2019-03-06T07:18:07.485Z,64.45
2019-03-06T07:19:07.352Z,63.42
2019-03-06T07:20:07.222Z,62.66
2019-03-06T07:21:07.086Z,61.74
2019-03-06T07:22:06.956Z,60.61
2019-03-06T07:23:06.823Z,58.81
2019-03-06T07:24:06.692Z,57.79
2019-03-06T07:25:06.561Z,57.04
2019-03-06T07:26:06.430Z,57.98
2019-03-06T07:27:06.298Z,57.89
2019-03-06T07:28:06.171Z,56.87
2019-03-06T07:29:06.039Z,56.87
2019-03-06T07:30:05.904Z,56.02
2019-03-06T07:31:05.773Z,56.90
2019-03-06T07:32:05.643Z,58.42
2019-03-06T07:33:05.513Z,59.18
2019-03-06T07:34:05.384Z,59.18
2019-03-06T07:35:05.252Z,58.42
2019-03-06T07:36:05.123Z,58.45
2019-03-06T07:37:04.994Z,58.64
2019-03-06T07:38:04.868Z,57.69
2019-03-06T07:39:05.722Z,56.96
2019-03-06T07:40:04.604Z,55.44
2019-03-06T07:41:04.476Z,55.25
2019-03-06T07:42:04.356Z,55.25
2019-03-06T07:43:04.217Z,55.16
2019-03-06T07:44:04.089Z,55.82
2019-03-06T07:45:03.959Z,54.49
2019-03-06T07:46:05.618Z,54.61
2019-03-06T07:47:03.700Z,54.30
2019-03-06T07:48:03.570Z,53.54
2019-03-06T07:49:03.445Z,54.78
2019-03-06T07:50:03.322Z,54.87
2019-03-06T07:51:03.186Z,55.06
2019-03-06T07:52:03.058Z,54.30
2019-03-06T07:53:02.931Z,54.39
2019-03-06T07:54:02.799Z,53.83
2019-03-06T07:55:02.673Z,53.07
2019-03-06T07:56:02.544Z,53.73
2019-03-06T07:57:02.417Z,53.76
2019-03-06T07:58:02.290Z,52.50
2019-03-06T07:59:02.161Z,52.05
2019-03-06T08:00:02.033Z,52.43
2019-03-06T08:01:01.905Z,52.14
2019-03-06T08:02:01.778Z,52.05
2019-03-06T08:03:01.653Z,51.95
2019-03-06T08:04:01.550Z,52.43
2019-03-06T08:05:01.396Z,53.47
2019-03-06T08:06:01.266Z,53.47
2019-03-06T08:07:01.135Z,53.57
2019-03-06T08:08:01.009Z,52.72
2019-03-06T08:09:00.886Z,52.17
2019-03-06T08:10:00.763Z,52.93
2019-03-06T08:11:02.529Z,51.79
2019-03-06T08:12:00.501Z,52.26
2019-03-06T08:13:00.373Z,51.51
2019-03-06T08:14:00.248Z,51.98
2019-03-06T08:15:00.251Z,51.62
2019-03-06T08:15:59.989Z,51.12
2019-03-06T08:16:59.864Z,50.84
2019-03-06T08:17:59.734Z,49.89
2019-03-06T08:18:59.613Z,49.58
2019-03-06T08:19:59.486Z,50.05
2019-03-06T08:20:59.390Z,50.15
2019-03-06T08:21:59.225Z,50.81
2019-03-06T08:22:59.107Z,50.91
2019-03-06T08:23:58.969Z,51.03
2019-03-06T08:24:58.845Z,51.03
2019-03-06T08:25:58.720Z,51.03
2019-03-06T08:26:58.593Z,50.08
2019-03-06T08:27:58.468Z,49.70
2019-03-06T08:28:58.336Z,49.60
2019-03-06T08:29:58.208Z,49.70
2019-03-06T08:31:02.035Z,49.60
2019-03-06T08:31:57.956Z,49.32
2019-03-06T08:32:57.826Z,49.41
2019-03-06T08:33:57.708Z,49.60
2019-03-06T08:34:57.572Z,49.22
2019-03-06T08:35:57.445Z,49.98
2019-03-06T08:36:58.210Z,50.93
2019-03-06T08:37:57.193Z,50.27
2019-03-06T08:38:57.068Z,50.08
2019-03-06T08:39:56.938Z,50.08
2019-03-06T08:41:03.905Z,48.85
2019-03-06T08:41:56.686Z,48.27
2019-03-06T08:42:56.558Z,46.47
2019-03-06T08:43:58.037Z,46.85
2019-03-06T08:44:56.305Z,46.94
2019-03-06T08:45:56.177Z,47.89
2019-03-06T08:46:56.048Z,46.85
2019-03-06T08:47:55.924Z,47.73
2019-03-06T08:48:55.794Z,48.30
2019-03-06T08:49:55.672Z,47.63
2019-03-06T08:50:55.590Z,47.16
2019-03-06T08:51:55.416Z,47.47
2019-03-06T08:52:55.287Z,47.47
2019-03-06T08:53:55.166Z,47.28
2019-03-06T08:54:55.036Z,47.75
2019-03-06T08:55:54.907Z,47.09
2019-03-06T08:56:54.785Z,46.61
2019-03-06T08:57:54.656Z,45.95
2019-03-06T08:58:54.530Z,46.61
2019-03-06T08:59:54.403Z,46.11
2019-03-06T09:00:54.280Z,46.30
2019-03-06T09:02:00.463Z,47.18
2019-03-06T09:02:54.025Z,47.56
2019-03-06T09:03:53.899Z,46.89
2019-03-06T09:04:53.771Z,46.04
2019-03-06T09:05:54.219Z,45.66
2019-03-06T09:06:53.518Z,45.75
2019-03-06T09:07:53.395Z,47.09
2019-03-06T09:08:53.270Z,47.20
2019-03-06T09:09:53.145Z,45.95
2019-03-06T09:11:02.272Z,45.66
2019-03-06T09:11:52.893Z,46.14
2019-03-06T09:12:52.762Z,45.95
2019-03-06T09:13:52.640Z,47.37
2019-03-06T09:14:52.510Z,47.94
2019-03-06T09:15:52.388Z,48.03
2019-03-06T09:16:52.260Z,46.99
2019-03-06T09:17:52.135Z,46.14
2019-03-06T09:18:52.010Z,45.18
2019-03-06T09:19:51.885Z,45.16
2019-03-06T09:20:51.759Z,46.14
2019-03-06T09:21:51.632Z,45.35
2019-03-06T09:22:51.508Z,45.54
2019-03-06T09:23:51.385Z,45.83
2019-03-06T09:24:51.258Z,46.23
2019-03-06T09:25:51.128Z,45.09
2019-03-06T09:26:51.004Z,45.01
2019-03-06T09:27:50.877Z,45.59
2019-03-06T09:28:50.753Z,45.11
2019-03-06T09:29:50.637Z,44.92
2019-03-06T09:30:50.500Z,44.35
2019-03-06T09:31:50.374Z,44.73
2019-03-06T09:32:50.249Z,45.40
2019-03-06T09:33:50.125Z,45.30
2019-03-06T09:34:50.229Z,45.85
2019-03-06T09:35:49.878Z,46.80
2019-03-06T09:36:49.747Z,47.58
2019-03-06T09:37:49.647Z,47.78
2019-03-06T09:38:49.497Z,46.63
2019-03-06T09:39:49.373Z,46.23
2019-03-06T09:40:49.247Z,46.92
2019-03-06T09:41:49.120Z,46.23
2019-03-06T09:42:48.998Z,48.51
2019-03-06T09:43:48.870Z,48.42
2019-03-06T09:44:48.749Z,47.75
2019-03-06T09:45:48.618Z,48.35
2019-03-06T09:46:48.493Z,48.13
2019-03-06T09:47:48.366Z,48.35
2019-03-06T09:48:48.240Z,48.51
2019-03-06T09:49:48.118Z,48.01
2019-03-06T09:50:47.990Z,48.96
2019-03-06T09:51:47.866Z,49.63
2019-03-06T09:52:47.741Z,50.01
2019-03-06T09:53:47.614Z,50.39
2019-03-06T09:54:47.492Z,50.96
2019-03-06T09:55:47.365Z,51.06
2019-03-06T09:56:47.238Z,50.96
2019-03-06T09:57:47.113Z,50.29
2019-03-06T09:58:46.984Z,49.91
2019-03-06T09:59:46.857Z,50.20
2019-03-06T10:00:46.731Z,50.18
2019-03-06T10:01:46.612Z,50.74
2019-03-06T10:02:46.488Z,51.91
2019-03-06T10:03:46.353Z,51.53
2019-03-06T10:04:46.233Z,50.96
2019-03-06T10:05:46.102Z,51.72
2019-03-06T10:06:45.972Z,50.96
2019-03-06T10:07:45.849Z,51.25
2019-03-06T10:08:45.724Z,50.20
2019-03-06T10:09:45.598Z,50.18
2019-03-06T10:10:47.777Z,51.31
2019-03-06T10:11:45.341Z,51.60
2019-03-06T10:12:47.685Z,52.17
2019-03-06T10:13:45.089Z,52.67
2019-03-06T10:14:44.977Z,52.29
2019-03-06T10:15:44.836Z,52.22
2019-03-06T10:16:48.845Z,51.75
2019-03-06T10:17:44.583Z,51.27
2019-03-06T10:18:44.459Z,51.27
2019-03-06T10:19:44.331Z,51.27
2019-03-06T10:20:44.216Z,50.51
2019-03-06T10:21:44.078Z,51.08
2019-03-06T10:22:43.992Z,50.92
2019-03-06T10:23:43.822Z,50.35
2019-03-06T10:24:43.702Z,50.06
2019-03-06T10:25:43.573Z,50.54
2019-03-06T10:26:43.445Z,50.60
2019-03-06T10:27:43.319Z,50.13
2019-03-06T10:28:43.195Z,50.92
2019-03-06T10:29:43.067Z,50.73
2019-03-06T10:30:42.942Z,50.44
2019-03-06T10:31:42.820Z,49.68
2019-03-06T10:32:42.690Z,49.77
2019-03-06T10:33:42.569Z,49.87
2019-03-06T10:34:42.435Z,51.08
2019-03-06T10:35:42.311Z,51.27
2019-03-06T10:36:42.189Z,50.89
2019-03-06T10:37:42.060Z,50.89
2019-03-06T10:38:41.937Z,51.65
2019-03-06T10:39:41.806Z,51.46
2019-03-06T10:40:41.678Z,51.27
2019-03-06T10:41:41.555Z,51.30
2019-03-06T10:42:41.426Z,51.39
2019-03-06T10:43:48.867Z,50.82
2019-03-06T10:44:41.174Z,50.25
2019-03-06T10:45:41.726Z,50.44
2019-03-06T10:46:40.923Z,49.77
2019-03-06T10:47:40.797Z,49.40
2019-03-06T10:48:40.671Z,49.87
2019-03-06T10:49:40.544Z,50.63
2019-03-06T10:50:40.422Z,51.30
2019-03-06T10:51:40.297Z,50.44
2019-03-06T10:52:40.168Z,49.96
2019-03-06T10:53:41.572Z,49.18
2019-03-06T10:54:44.628Z,50.04
2019-03-06T10:55:39.803Z,49.75
2019-03-06T10:56:39.664Z,49.87
2019-03-06T10:57:39.537Z,49.96
2019-03-06T10:58:39.410Z,50.06
2019-03-06T10:59:39.285Z,49.87
2019-03-06T11:00:39.161Z,49.80
2019-03-06T11:01:39.033Z,50.18
2019-03-06T11:02:38.945Z,49.49
2019-03-06T11:03:38.810Z,49.58
2019-03-06T11:04:38.690Z,49.40
2019-03-06T11:05:38.531Z,48.54
2019-03-06T11:06:38.402Z,47.56
2019-03-06T11:07:38.279Z,47.56
2019-03-06T11:08:38.159Z,48.80
2019-03-06T11:09:38.028Z,48.80
2019-03-06T11:10:37.900Z,48.61
2019-03-06T11:11:37.773Z,49.75
2019-03-06T11:12:37.655Z,49.30
2019-03-06T11:13:37.521Z,49.40
2019-03-06T11:14:37.395Z,49.58
2019-03-06T11:15:37.270Z,49.87
2019-03-06T11:16:37.143Z,48.35
2019-03-06T11:17:37.015Z,48.44
2019-03-06T11:18:36.890Z,48.92
2019-03-06T11:19:36.765Z,47.87
2019-03-06T11:20:36.635Z,48.44
2019-03-06T11:21:36.517Z,47.68
2019-03-06T11:22:36.386Z,48.63
2019-03-06T11:23:36.256Z,50.06
2019-03-06T11:24:36.137Z,49.49
2019-03-06T11:25:36.006Z,48.54
2019-03-06T11:26:35.876Z,48.73
2019-03-06T11:27:35.754Z,48.06
2019-03-06T11:28:35.630Z,48.42
2019-03-06T11:29:35.501Z,48.23
2019-03-06T11:30:35.376Z,48.82
2019-03-06T11:31:35.246Z,48.73
2019-03-06T11:32:35.123Z,48.16
2019-03-06T11:33:36.831Z,48.06
2019-03-06T11:34:34.867Z,48.16
2019-03-06T11:35:34.748Z,48.90
2019-03-06T11:36:34.617Z,48.90
2019-03-06T11:37:34.486Z,48.63
2019-03-06T11:38:34.361Z,48.80
2019-03-06T11:39:34.240Z,48.32
2019-03-06T11:40:34.122Z,49.08
2019-03-06T11:41:33.980Z,49.56
2019-03-06T11:42:33.856Z,49.37
2019-03-06T11:43:33.731Z,48.61
2019-03-06T11:44:33.602Z,49.27
2019-03-06T11:45:33.475Z,48.80
2019-03-06T11:46:33.350Z,49.18
2019-03-06T11:47:33.222Z,49.65
2019-03-06T11:48:33.095Z,49.85
2019-03-06T11:49:32.970Z,49.46
2019-03-06T11:50:40.641Z,48.71
2019-03-06T11:51:32.717Z,49.08
2019-03-06T11:52:34.803Z,49.18
2019-03-06T11:53:33.007Z,49.85
2019-03-06T11:54:32.334Z,50.04
2019-03-06T11:55:32.210Z,49.75
2019-03-06T11:56:32.083Z,50.25
2019-03-06T11:57:33.374Z,49.27
2019-03-06T11:58:31.828Z,49.96
2019-03-06T11:59:31.704Z,49.65
2019-03-06T12:00:32.307Z,48.71
2019-03-06T12:01:31.450Z,48.32
2019-03-06T12:02:31.322Z,48.51
2019-03-06T12:03:31.196Z,48.80
2019-03-06T12:04:31.066Z,49.49
2019-03-06T12:05:30.995Z,48.71
2019-03-06T12:06:30.827Z,48.82
2019-03-06T12:07:30.784Z,48.42
2019-03-06T12:08:30.561Z,48.82
2019-03-06T12:09:30.434Z,48.82
2019-03-06T12:10:31.421Z,48.44
2019-03-06T12:11:30.180Z,49.01
2019-03-06T12:12:30.055Z,48.06
2019-03-06T12:13:29.930Z,46.92
2019-03-06T12:14:29.804Z,47.49
2019-03-06T12:15:29.677Z,48.35
2019-03-06T12:16:29.608Z,48.54
2019-03-06T12:17:29.422Z,49.68
2019-03-06T12:18:29.302Z,48.73
2019-03-06T12:19:29.176Z,48.25
2019-03-06T12:20:29.046Z,48.51
2019-03-06T12:21:28.916Z,48.82
2019-03-06T12:22:28.791Z,47.94
2019-03-06T12:23:28.663Z,49.01
2019-03-06T12:24:28.541Z,49.68
2019-03-06T12:25:28.412Z,48.44
2019-03-06T12:26:28.288Z,48.16
2019-03-06T12:27:28.424Z,48.35
2019-03-06T12:28:28.037Z,48.25
2019-03-06T12:29:28.314Z,48.44
2019-03-06T12:30:27.778Z,48.06
2019-03-06T12:31:27.651Z,48.35
2019-03-06T12:32:27.527Z,48.63
2019-03-06T12:33:27.400Z,48.47
2019-03-06T12:34:27.271Z,48.37
2019-03-06T12:35:27.155Z,48.27
2019-03-06T12:36:27.021Z,47.89
2019-03-06T12:37:26.896Z,48.18
2019-03-06T12:38:26.768Z,48.47
2019-03-06T12:39:26.646Z,47.71
2019-03-06T12:40:26.523Z,47.52
2019-03-06T12:41:26.391Z,47.42
2019-03-06T12:42:26.263Z,46.94
2019-03-06T12:43:26.139Z,47.99
2019-03-06T12:44:26.010Z,48.27
2019-03-06T12:45:27.310Z,48.37
2019-03-06T12:46:25.760Z,47.52
2019-03-06T12:47:25.636Z,47.49
2019-03-06T12:48:25.508Z,48.54
2019-03-06T12:49:25.382Z,48.16
2019-03-06T12:50:25.256Z,48.73